createdAt,value
2019-03-05T00:01:15.237Z,32.17
2019-03-05T00:03:44.358Z,32.78
2019-03-05T00:06:13.588Z,32.67
2019-03-05T00:08:42.774Z,34.95
2019-03-05T00:11:11.764Z,31.30
2019-03-05T00:13:41.008Z,31.45
2019-03-05T00:16:10.647Z,36.93
2019-03-05T00:18:39.810Z,31.20
2019-03-05T00:21:08.987Z,31.60
2019-03-05T00:23:59.276Z,30.72
2019-03-05T00:26:33.737Z,30.48
2019-03-05T00:29:47.519Z,36.10
2019-03-05T00:32:16.485Z,31.25
2019-03-05T00:34:57.069Z,35.23
2019-03-05T00:37:33.603Z,35.08
2019-03-05T00:40:09.147Z,35.13
2019-03-05T00:42:48.997Z,32.33
2019-03-05T00:45:36.143Z,33.58
2019-03-05T00:50:33.807Z,31.33
2019-03-05T00:54:08.831Z,34.40
2019-03-05T00:56:47.673Z,26.42
2019-03-05T00:59:32.142Z,30.72
2019-03-05T01:02:15.457Z,30.55
2019-03-05T01:04:56.669Z,29.98
2019-03-05T01:07:25.836Z,28.10
2019-03-05T01:09:55.406Z,43.87
2019-03-05T01:12:24.656Z,41.42
2019-03-05T01:14:54.032Z,29.07
2019-03-05T01:17:23.187Z,34.48
2019-03-05T01:19:52.832Z,32.15
2019-03-05T01:22:22.047Z,30.15
2019-03-05T01:24:51.107Z,31.97
2019-03-05T01:27:20.695Z,29.75
2019-03-05T01:29:50.259Z,32.33
2019-03-05T01:32:53.792Z,33.00
2019-03-05T01:35:29.908Z,37.33
2019-03-05T01:37:59.126Z,30.72
2019-03-05T01:40:33.131Z,33.83
2019-03-05T01:43:01.947Z,29.35
2019-03-05T01:45:31.231Z,32.15
2019-03-05T01:48:00.537Z,37.25
2019-03-05T01:50:29.823Z,32.00
2019-03-05T01:52:59.304Z,29.77
2019-03-05T01:55:28.296Z,30.48
2019-03-05T01:57:57.532Z,30.65
2019-03-05T02:00:26.812Z,34.40
2019-03-05T02:02:55.800Z,30.62
2019-03-05T02:05:25.582Z,31.85
2019-03-05T02:07:55.619Z,30.40
2019-03-05T02:10:24.448Z,32.80
2019-03-05T02:12:53.436Z,31.35
2019-03-05T02:15:23.082Z,30.00
2019-03-05T02:17:52.163Z,32.75
2019-03-05T02:20:23.243Z,26.37
2019-03-05T02:23:05.586Z,33.30
2019-03-05T02:25:48.342Z,27.67
2019-03-05T02:29:33.186Z,35.92
2019-03-05T02:32:12.906Z,31.62
2019-03-05T02:36:05.381Z,28.85
2019-03-05T02:38:42.113Z,27.82
2019-03-05T02:42:23.545Z,27.75
2019-03-05T02:45:19.192Z,32.60
2019-03-05T02:50:03.626Z,33.00
2019-03-05T02:52:49.212Z,33.38
2019-03-05T02:56:34.188Z,35.08
2019-03-05T02:59:02.022Z,32.78
2019-03-05T03:01:44.150Z,35.55
2019-03-05T03:04:15.432Z,32.28
2019-03-05T03:06:44.476Z,34.03
2019-03-05T03:10:19.160Z,33.80
2019-03-05T03:12:48.129Z,40.08
2019-03-05T03:15:18.179Z,43.87
2019-03-05T03:17:47.543Z,45.75
2019-03-05T03:20:18.160Z,46.73
2019-03-05T03:22:47.042Z,47.78
2019-03-05T03:25:19.053Z,45.85
2019-03-05T03:27:48.150Z,48.70
2019-03-05T03:30:18.766Z,54.88
2019-03-05T03:32:47.860Z,40.85
2019-03-05T03:35:17.065Z,51.60
2019-03-05T03:37:46.131Z,29.25
2019-03-05T03:40:22.453Z,37.42
2019-03-05T03:42:52.121Z,29.55
2019-03-05T03:45:23.692Z,28.83
2019-03-05T03:47:53.287Z,29.07
2019-03-05T03:50:22.424Z,28.57
2019-03-05T03:52:51.422Z,31.40
2019-03-05T03:55:20.650Z,29.98
2019-03-05T03:57:49.736Z,32.17
2019-03-05T04:00:23.058Z,32.98
2019-03-05T04:02:52.275Z,40.88
2019-03-05T04:05:21.458Z,35.58
2019-03-05T04:07:50.736Z,40.90
2019-03-05T04:10:20.081Z,40.55
2019-03-05T04:12:49.143Z,35.60
2019-03-05T04:15:19.750Z,39.55
2019-03-05T04:17:49.065Z,33.53
2019-03-05T04:20:23.556Z,38.73
2019-03-05T04:22:52.905Z,36.88
2019-03-05T04:25:22.007Z,34.50
2019-03-05T04:27:50.996Z,39.55
2019-03-05T04:30:20.278Z,31.55
2019-03-05T04:32:49.384Z,37.93
2019-03-05T04:35:18.443Z,34.27
2019-03-05T04:37:47.366Z,37.13
2019-03-05T04:40:17.003Z,30.95
2019-03-05T04:42:46.018Z,42.73
2019-03-05T04:45:31.781Z,34.78
2019-03-05T04:48:00.788Z,33.42
2019-03-05T04:50:37.303Z,38.83
2019-03-05T04:53:06.597Z,54.60
2019-03-05T04:55:35.835Z,42.20
2019-03-05T04:58:04.940Z,38.90
2019-03-05T05:00:35.053Z,44.15
2019-03-05T05:03:04.162Z,45.63
2019-03-05T05:05:33.672Z,41.05
2019-03-05T05:08:03.428Z,36.83
2019-03-05T05:10:32.830Z,42.70
2019-03-05T05:13:01.792Z,43.28
2019-03-05T05:15:32.784Z,39.42
2019-03-05T05:18:01.831Z,37.93
2019-03-05T05:20:31.121Z,39.25
2019-03-05T05:23:00.107Z,44.20
2019-03-05T05:25:29.264Z,36.25
2019-03-05T05:27:58.379Z,30.40
2019-03-05T05:30:30.330Z,38.70
2019-03-05T05:32:59.461Z,48.00
2019-03-05T05:35:28.662Z,45.70
2019-03-05T05:37:57.690Z,42.88
2019-03-05T05:40:29.624Z,41.13
2019-03-05T05:42:58.859Z,154.68
2019-03-05T05:45:32.549Z,40.25
2019-03-05T05:48:02.791Z,42.15
2019-03-05T05:50:32.068Z,37.42
2019-03-05T05:53:01.120Z,41.10
2019-03-05T05:55:30.206Z,45.73
2019-03-05T05:57:59.427Z,42.70
2019-03-05T06:00:28.701Z,45.05
2019-03-05T06:02:58.111Z,52.78
2019-03-05T06:05:27.757Z,137.57
2019-03-05T06:07:57.056Z,78.78
2019-03-05T06:10:26.259Z,42.13
2019-03-05T06:12:55.238Z,51.53
2019-03-05T06:15:24.242Z,57.78
2019-03-05T06:17:53.751Z,66.33
2019-03-05T06:20:23.160Z,51.15
2019-03-05T06:22:52.125Z,50.85
2019-03-05T06:25:21.404Z,49.35
2019-03-05T06:27:50.931Z,44.85
2019-03-05T06:30:20.531Z,43.00
2019-03-05T06:32:49.659Z,48.25
2019-03-05T06:35:18.926Z,49.38
2019-03-05T06:37:48.573Z,76.87
2019-03-05T06:40:18.226Z,76.30
2019-03-05T06:42:48.309Z,58.55
2019-03-05T06:45:17.888Z,62.88
2019-03-05T06:47:46.941Z,61.15
2019-03-05T06:50:16.570Z,64.10
2019-03-05T06:52:45.547Z,66.42
2019-03-05T06:55:14.931Z,64.30
2019-03-05T06:57:44.719Z,71.57
2019-03-05T07:00:16.800Z,62.83
2019-03-05T07:02:45.856Z,58.45
2019-03-05T07:06:24.592Z,67.85
2019-03-05T07:09:00.864Z,73.33
2019-03-05T07:11:40.295Z,55.75
2019-03-05T07:14:15.858Z,61.42
2019-03-05T07:16:55.163Z,40.60
2019-03-05T07:19:34.017Z,46.77
2019-03-05T07:22:21.155Z,45.35
2019-03-05T07:24:51.217Z,36.60
2019-03-05T07:27:30.968Z,38.23
2019-03-05T07:30:03.688Z,33.90
2019-03-05T07:32:33.514Z,33.50
2019-03-05T07:35:02.527Z,39.38
2019-03-05T07:37:31.592Z,44.20
2019-03-05T07:40:01.200Z,54.23
2019-03-05T07:42:30.385Z,45.92
2019-03-05T07:44:59.812Z,46.85
2019-03-05T07:47:28.922Z,41.88
2019-03-05T07:49:58.001Z,36.65
2019-03-05T07:52:27.255Z,39.55
2019-03-05T07:54:56.430Z,40.10
2019-03-05T07:57:25.418Z,39.83
2019-03-05T07:59:55.213Z,35.17
2019-03-05T08:02:24.325Z,34.92
2019-03-05T08:04:53.687Z,36.15
2019-03-05T08:07:23.595Z,34.33
2019-03-05T08:09:52.535Z,36.05
2019-03-05T08:12:35.759Z,36.05
2019-03-05T08:15:18.317Z,46.13
2019-03-05T08:17:47.268Z,38.10
2019-03-05T08:20:16.983Z,34.65
2019-03-05T08:22:45.973Z,40.33
2019-03-05T08:25:15.844Z,33.15
2019-03-05T08:27:44.880Z,31.37
2019-03-05T08:30:15.314Z,24.13
2019-03-05T08:32:44.300Z,29.80
2019-03-05T08:35:14.505Z,25.63
2019-03-05T08:37:44.643Z,32.20
2019-03-05T08:40:14.057Z,28.70
2019-03-05T08:42:44.159Z,28.23
2019-03-05T08:45:14.291Z,26.63
2019-03-05T08:47:43.473Z,26.80
2019-03-05T08:50:13.052Z,34.23
2019-03-05T08:52:42.403Z,36.40
2019-03-05T08:55:11.581Z,28.07
2019-03-05T08:57:42.299Z,34.97
2019-03-05T09:00:13.199Z,32.10
2019-03-05T09:02:48.635Z,32.90
2019-03-05T09:05:11.683Z,32.50
2019-03-05T09:07:40.849Z,29.73
2019-03-05T09:10:12.501Z,30.17
2019-03-05T09:12:42.447Z,27.57
2019-03-05T09:15:13.437Z,31.07
2019-03-05T09:17:42.441Z,31.30
2019-03-05T09:20:13.307Z,23.47
2019-03-05T09:22:42.582Z,30.77
2019-03-05T09:25:12.681Z,26.03
2019-03-05T09:27:42.771Z,22.80
2019-03-05T09:30:15.277Z,23.83
2019-03-05T09:32:44.777Z,29.07
2019-03-05T09:35:13.995Z,39.20
2019-03-05T09:37:43.303Z,30.43
2019-03-05T09:40:15.675Z,26.33
2019-03-05T09:42:45.464Z,28.70
2019-03-05T09:45:16.198Z,39.53
2019-03-05T09:47:45.907Z,23.17
2019-03-05T09:50:16.037Z,26.20
2019-03-05T09:52:54.525Z,27.87
2019-03-05T09:55:16.600Z,28.57
2019-03-05T09:57:45.751Z,24.53
2019-03-05T10:00:17.333Z,26.63
2019-03-05T10:02:46.433Z,8.27
2019-03-05T10:05:16.107Z,13.23
2019-03-05T10:07:45.411Z,15.13
2019-03-05T10:10:17.002Z,13.60
2019-03-05T10:12:45.956Z,9.63
2019-03-05T10:15:17.323Z,21.80
2019-03-05T10:17:46.364Z,11.90
2019-03-05T10:20:17.776Z,10.97
2019-03-05T10:22:47.324Z,11.40
2019-03-05T10:25:18.140Z,11.43
2019-03-05T10:27:47.316Z,12.93
2019-03-05T10:30:24.870Z,12.37
2019-03-05T10:32:47.706Z,15.70
2019-03-05T10:35:16.773Z,13.50
2019-03-05T10:37:45.853Z,8.07
2019-03-05T10:40:15.691Z,10.70
2019-03-05T10:42:44.896Z,7.83
2019-03-05T10:45:16.073Z,10.27
2019-03-05T10:47:44.941Z,12.60
2019-03-05T10:50:16.845Z,11.27
2019-03-05T10:52:45.917Z,9.73
2019-03-05T10:55:25.699Z,14.30
2019-03-05T10:57:45.119Z,10.40
2019-03-05T11:00:17.251Z,7.03
2019-03-05T11:02:47.050Z,7.93
2019-03-05T11:05:16.165Z,7.43
2019-03-05T11:07:45.631Z,10.77
2019-03-05T11:10:15.116Z,11.27
2019-03-05T11:12:45.316Z,13.87
2019-03-05T11:15:17.963Z,12.80
2019-03-05T11:17:47.678Z,10.10
2019-03-05T11:20:17.703Z,12.43
2019-03-05T11:22:46.848Z,8.77
2019-03-05T11:25:17.038Z,12.17
2019-03-05T11:27:46.216Z,10.63
2019-03-05T11:30:17.560Z,10.47
2019-03-05T11:32:46.706Z,11.23
2019-03-05T11:35:17.529Z,12.83
2019-03-05T11:37:46.512Z,13.80
2019-03-05T11:40:21.125Z,9.77
2019-03-05T11:42:45.107Z,10.13
2019-03-05T11:45:18.880Z,10.37
2019-03-05T11:47:48.004Z,9.23
2019-03-05T11:50:17.334Z,8.90
2019-03-05T11:52:46.423Z,10.80
2019-03-05T11:55:17.215Z,11.43
2019-03-05T11:57:46.919Z,12.20
2019-03-05T12:00:19.236Z,9.67
2019-03-05T12:02:48.275Z,13.70
2019-03-05T12:05:17.730Z,13.03
2019-03-05T12:07:46.689Z,6.97
2019-03-05T12:10:17.171Z,11.00
2019-03-05T12:12:46.223Z,16.10
2019-03-05T12:15:16.885Z,13.47
2019-03-05T12:17:45.929Z,9.90
2019-03-05T12:20:15.217Z,13.97
2019-03-05T12:22:44.803Z,16.97
2019-03-05T12:25:15.737Z,14.07
2019-03-05T12:27:45.332Z,8.83
2019-03-05T12:30:18.060Z,11.93
2019-03-05T12:32:47.643Z,10.23
2019-03-05T12:35:17.126Z,9.43
2019-03-05T12:37:46.289Z,7.67
2019-03-05T12:40:16.688Z,7.20
2019-03-05T12:42:45.834Z,10.77
2019-03-05T12:45:15.246Z,8.37
2019-03-05T12:47:45.042Z,13.90
2019-03-05T12:50:16.459Z,12.57
2019-03-05T12:52:45.889Z,8.07
2019-03-05T12:55:15.462Z,9.70
2019-03-05T12:57:45.161Z,11.60
2019-03-05T13:00:17.909Z,13.37
2019-03-05T13:02:46.941Z,9.40
2019-03-05T13:05:16.545Z,13.30
2019-03-05T13:07:45.307Z,8.83
2019-03-05T13:10:16.150Z,13.43
2019-03-05T13:12:45.354Z,13.53
2019-03-05T13:15:17.128Z,8.37
2019-03-05T13:17:47.157Z,9.90
2019-03-05T13:20:16.343Z,12.30
2019-03-05T13:22:46.361Z,15.83
2019-03-05T13:25:16.384Z,12.63
2019-03-05T13:27:45.848Z,11.13
2019-03-05T13:30:17.683Z,29.10
2019-03-05T13:32:46.617Z,12.57
2019-03-05T13:35:16.475Z,12.67
2019-03-05T13:37:46.674Z,13.53
2019-03-05T13:40:17.983Z,13.87
2019-03-05T13:42:47.261Z,16.37
2019-03-05T13:45:16.486Z,17.60
2019-03-05T13:47:56.719Z,17.60
2019-03-05T13:52:41.311Z,15.33
2019-03-05T13:58:25.663Z,14.53
2019-03-05T14:00:54.947Z,12.20
2019-03-05T14:03:29.860Z,11.87
2019-03-05T14:06:43.318Z,11.67
2019-03-05T14:09:17.713Z,10.43
2019-03-05T14:11:48.019Z,9.20
2019-03-05T14:14:22.955Z,9.93
2019-03-05T14:16:58.163Z,13.37
2019-03-05T14:19:28.098Z,10.13
2019-03-05T14:21:58.144Z,10.33
2019-03-05T14:24:27.405Z,16.83
2019-03-05T14:26:58.234Z,22.97
2019-03-05T14:29:29.274Z,17.23
2019-03-05T14:31:56.749Z,12.57
2019-03-05T14:34:25.988Z,19.70
2019-03-05T14:36:55.917Z,14.13
2019-03-05T14:39:28.231Z,10.90
2019-03-05T14:41:57.752Z,13.57
2019-03-05T14:44:26.766Z,12.30
2019-03-05T14:46:58.839Z,14.23
2019-03-05T14:49:28.721Z,16.53
2019-03-05T14:51:58.052Z,17.90
2019-03-05T14:54:27.547Z,15.80
2019-03-05T14:56:57.307Z,16.10
2019-03-05T14:59:26.799Z,14.53
2019-03-05T15:01:56.453Z,13.30
2019-03-05T15:04:26.417Z,18.43
2019-03-05T15:06:55.574Z,15.10
2019-03-05T15:09:24.742Z,14.53
2019-03-05T15:11:54.335Z,17.87
2019-03-05T15:14:23.595Z,20.70
2019-03-05T15:16:53.002Z,19.13
2019-03-05T15:19:22.631Z,18.13
2019-03-05T15:21:51.813Z,18.97
2019-03-05T15:24:21.029Z,19.07
2019-03-05T15:26:50.938Z,19.20
2019-03-05T15:29:20.829Z,20.17
2019-03-05T15:31:50.474Z,18.63
2019-03-05T15:34:19.805Z,19.90
2019-03-05T15:36:51.924Z,23.43
2019-03-05T15:39:18.181Z,33.37
2019-03-05T15:41:47.221Z,25.07
2019-03-05T15:44:16.735Z,24.87
2019-03-05T15:46:46.353Z,22.73
2019-03-05T15:49:15.470Z,32.63
2019-03-05T15:51:44.344Z,17.87
2019-03-05T15:54:13.540Z,16.63
2019-03-05T15:56:42.786Z,23.00
2019-03-05T15:59:11.878Z,22.73
2019-03-05T16:01:42.184Z,21.53
2019-03-05T16:04:11.343Z,29.60
2019-03-05T16:06:40.341Z,22.90
2019-03-05T16:09:17.756Z,25.17
2019-03-05T16:11:46.919Z,16.97
2019-03-05T16:14:16.408Z,18.97
2019-03-05T16:16:45.317Z,14.50
2019-03-05T16:19:16.545Z,19.37
2019-03-05T16:21:43.731Z,23.57
2019-03-05T16:24:12.963Z,21.00
2019-03-05T16:26:42.650Z,16.07
2019-03-05T16:29:11.727Z,20.27
2019-03-05T16:31:49.818Z,23.20
2019-03-05T16:34:23.316Z,20.67
2019-03-05T16:36:57.623Z,22.57
2019-03-05T16:40:05.136Z,22.73
2019-03-05T16:42:41.909Z,20.37
2019-03-05T16:45:22.896Z,21.97
2019-03-05T16:48:01.706Z,20.03
2019-03-05T16:50:36.650Z,16.57
2019-03-05T16:53:15.825Z,18.33
2019-03-05T16:56:55.138Z,16.70
2019-03-05T17:01:36.971Z,18.70
2019-03-05T17:04:12.576Z,392.47
2019-03-05T17:07:46.184Z,1999.90
2019-03-05T17:10:20.060Z,884.90
2019-03-05T17:12:49.001Z,1999.90
2019-03-05T17:15:18.278Z,1172.30
2019-03-05T17:17:47.143Z,1158.83
2019-03-05T17:20:16.844Z,1825.20
2019-03-05T17:22:45.860Z,1999.90
2019-03-05T17:25:16.119Z,1999.90
2019-03-05T17:27:45.349Z,1329.57
2019-03-05T17:30:15.548Z,45.37
2019-03-05T17:32:44.707Z,15.00
2019-03-05T17:35:13.893Z,14.77
2019-03-05T17:37:43.005Z,18.83
2019-03-05T17:40:12.211Z,17.07
2019-03-05T17:42:41.380Z,15.03
2019-03-05T17:45:13.442Z,282.83
2019-03-05T17:47:42.824Z,20.70
2019-03-05T17:50:12.212Z,21.70
2019-03-05T17:52:41.507Z,17.13
2019-03-05T17:55:12.813Z,17.80
2019-03-05T17:57:41.849Z,18.30
2019-03-05T18:00:12.788Z,26.00
2019-03-05T18:02:41.818Z,15.97
2019-03-05T18:05:10.979Z,15.27
2019-03-05T18:07:40.545Z,17.93
2019-03-05T18:10:10.058Z,15.70
2019-03-05T18:12:38.991Z,17.33
2019-03-05T18:15:08.980Z,18.67
2019-03-05T18:17:38.456Z,16.90
2019-03-05T18:20:09.239Z,18.77
2019-03-05T18:22:38.231Z,17.23
2019-03-05T18:25:08.003Z,17.50
2019-03-05T18:27:37.248Z,19.50
2019-03-05T18:30:09.074Z,17.23
2019-03-05T18:32:38.210Z,16.73
2019-03-05T18:35:07.741Z,16.03
2019-03-05T18:37:37.248Z,13.80
2019-03-05T18:40:06.931Z,16.83
2019-03-05T18:42:36.242Z,18.67
2019-03-05T18:45:07.500Z,23.60
2019-03-05T18:47:36.432Z,19.43
2019-03-05T18:50:05.649Z,18.80
2019-03-05T18:52:34.604Z,16.60
2019-03-05T18:55:03.640Z,19.47
2019-03-05T18:57:32.837Z,17.50
2019-03-05T19:00:02.550Z,19.80
2019-03-05T19:02:32.180Z,21.55
2019-03-05T19:05:01.336Z,23.17
2019-03-05T19:07:31.134Z,19.60
2019-03-05T19:10:01.283Z,21.10
2019-03-05T19:12:30.200Z,21.93
2019-03-05T19:14:59.441Z,23.02
2019-03-05T19:17:28.533Z,20.27
2019-03-05T19:19:57.768Z,17.53
2019-03-05T19:22:26.877Z,35.87
2019-03-05T19:24:56.604Z,90.17
2019-03-05T19:27:26.284Z,15.07
2019-03-05T19:29:55.513Z,14.43
2019-03-05T19:32:24.883Z,14.98
2019-03-05T19:34:54.445Z,17.83
2019-03-05T19:37:23.421Z,17.70
2019-03-05T19:39:53.787Z,19.27
2019-03-05T19:42:22.979Z,18.43
2019-03-05T19:44:53.168Z,16.43
2019-03-05T19:47:23.529Z,15.10
2019-03-05T19:49:53.212Z,15.53
2019-03-05T19:52:22.187Z,18.77
2019-03-05T19:54:51.499Z,16.13
2019-03-05T19:57:20.503Z,16.17
2019-03-05T19:59:49.553Z,14.93
2019-03-05T20:02:19.652Z,17.17
2019-03-05T20:04:48.812Z,16.23
2019-03-05T20:07:18.012Z,15.67
2019-03-05T20:09:47.192Z,16.12
2019-03-05T20:12:16.470Z,14.87
2019-03-05T20:14:46.187Z,14.50
2019-03-05T20:17:15.142Z,13.58
2019-03-05T20:19:43.995Z,15.63
2019-03-05T20:22:12.848Z,17.02
2019-03-05T20:24:42.539Z,21.40
2019-03-05T20:27:16.066Z,16.12
2019-03-05T20:29:40.683Z,19.77
2019-03-05T20:32:09.931Z,19.90
2019-03-05T20:34:39.076Z,20.20
2019-03-05T20:37:08.183Z,16.10
2019-03-05T20:39:37.292Z,21.75
2019-03-05T20:42:06.983Z,26.68
2019-03-05T20:44:36.096Z,22.30
2019-03-05T20:47:05.338Z,16.85
2019-03-05T20:49:34.827Z,15.38
2019-03-05T20:52:05.640Z,16.77
2019-03-05T20:54:34.637Z,16.82
2019-03-05T20:57:03.979Z,25.02
2019-03-05T20:59:33.209Z,12.93
2019-03-05T21:02:03.079Z,17.12
2019-03-05T21:04:32.472Z,14.68
2019-03-05T21:07:01.845Z,68.57
2019-03-05T21:09:31.354Z,15.40
2019-03-05T21:12:00.493Z,15.50
2019-03-05T21:14:29.447Z,12.03
2019-03-05T21:16:58.686Z,13.72
2019-03-05T21:19:27.716Z,15.78
2019-03-05T21:21:56.725Z,10.90
2019-03-05T21:24:26.010Z,10.53
2019-03-05T21:26:55.195Z,10.53
2019-03-05T21:29:25.488Z,12.07
2019-03-05T21:31:54.692Z,12.03
2019-03-05T21:34:23.873Z,31.20
2019-03-05T21:36:52.842Z,28.25
2019-03-05T21:39:22.134Z,10.28
2019-03-05T21:41:51.252Z,14.70
2019-03-05T21:44:20.633Z,12.63
2019-03-05T21:46:49.877Z,14.70
2019-03-05T21:49:19.040Z,20.75
2019-03-05T21:51:48.094Z,13.35
2019-03-05T21:54:17.233Z,16.65
2019-03-05T21:56:46.491Z,13.68
2019-03-05T21:59:16.243Z,13.65
2019-03-05T22:01:46.222Z,29.00
2019-03-05T22:04:15.359Z,29.23
2019-03-05T22:06:44.970Z,45.70
2019-03-05T22:09:14.894Z,50.52
2019-03-05T22:11:44.621Z,56.55
2019-03-05T22:14:14.194Z,10.70
2019-03-05T22:16:43.995Z,10.30
2019-03-05T22:19:13.323Z,53.58
2019-03-05T22:21:42.682Z,37.40
2019-03-05T22:24:11.766Z,16.20
2019-03-05T22:26:40.600Z,15.10
2019-03-05T22:29:09.633Z,14.40
2019-03-05T22:31:38.663Z,10.50
2019-03-05T22:34:08.724Z,25.15
2019-03-05T22:36:37.748Z,13.55
2019-03-05T22:39:07.335Z,10.43
2019-03-05T22:41:38.351Z,12.78
2019-03-05T22:44:06.051Z,10.15
2019-03-05T22:46:36.027Z,9.78
2019-03-05T22:49:05.191Z,11.20
2019-03-05T22:51:34.368Z,8.75
2019-03-05T22:54:03.840Z,11.78
2019-03-05T22:56:32.891Z,10.13
2019-03-05T22:59:02.688Z,8.88
2019-03-05T23:01:37.045Z,9.28
2019-03-05T23:04:06.373Z,16.42
2019-03-05T23:06:35.553Z,56.60
2019-03-05T23:09:05.714Z,51.40
2019-03-05T23:11:34.955Z,26.68
2019-03-05T23:14:04.088Z,62.80
2019-03-05T23:16:33.211Z,8.10
2019-03-05T23:19:03.229Z,8.65
2019-03-05T23:21:32.468Z,19.30
2019-03-05T23:24:01.521Z,6.78
2019-03-05T23:26:31.448Z,8.23
2019-03-05T23:29:00.679Z,5.58
2019-03-05T23:31:29.831Z,6.42
2019-03-05T23:33:59.465Z,8.33
2019-03-05T23:36:28.451Z,5.37
2019-03-05T23:38:57.625Z,4.85
2019-03-05T23:41:27.189Z,5.92
2019-03-05T23:43:56.776Z,6.22
2019-03-05T23:46:26.199Z,3.95
2019-03-05T23:48:55.111Z,5.60
2019-03-05T23:51:24.400Z,4.85
2019-03-05T23:53:53.688Z,5.45
2019-03-05T23:56:23.063Z,6.17
2019-03-05T23:58:52.112Z,5.65
